createdAt,value
2022-08-17T00:00:35.022Z,4.97
2022-08-17T00:03:10.058Z,4.27
2022-08-17T00:05:43.632Z,5.40
2022-08-17T00:08:12.523Z,5.03
2022-08-17T00:10:41.011Z,4.90
2022-08-17T00:13:16.671Z,5.17
2022-08-17T00:15:44.989Z,5.33
2022-08-17T00:19:01.925Z,6.10
2022-08-17T00:21:10.728Z,6.27
2022-08-17T00:23:49.068Z,5.67
2022-08-17T00:26:44.012Z,6.10
2022-08-17T00:29:07.721Z,5.80
2022-08-17T00:31:35.777Z,6.80
2022-08-17T00:34:06.197Z,6.77
2022-08-17T00:36:34.111Z,5.67
2022-08-17T00:39:02.032Z,6.20
2022-08-17T00:41:30.989Z,6.90
2022-08-17T00:44:02.650Z,7.00
2022-08-17T00:46:32.932Z,6.57
2022-08-17T00:49:01.482Z,6.50
2022-08-17T00:51:34.276Z,7.60
2022-08-17T00:54:07.890Z,5.90
2022-08-17T00:56:40.876Z,4.97
2022-08-17T00:59:10.585Z,5.10
2022-08-17T01:01:40.153Z,6.10
2022-08-17T01:04:09.543Z,5.60
2022-08-17T01:06:39.110Z,5.40
2022-08-17T01:09:08.683Z,4.97
2022-08-17T01:11:37.220Z,5.43
2022-08-17T01:14:05.137Z,5.50
2022-08-17T01:16:33.610Z,5.40
2022-08-17T01:19:04.155Z,6.10
2022-08-17T01:21:38.881Z,4.90
2022-08-17T01:24:08.959Z,5.20
2022-08-17T01:26:38.056Z,5.30
2022-08-17T01:29:07.463Z,5.47
2022-08-17T01:31:39.989Z,5.23
2022-08-17T01:34:11.122Z,5.17
2022-08-17T01:36:40.679Z,5.40
2022-08-17T01:39:18.050Z,4.80
2022-08-17T01:41:47.547Z,5.00
2022-08-17T01:44:17.662Z,5.00
2022-08-17T01:46:45.828Z,5.13
2022-08-17T01:49:13.942Z,5.10
2022-08-17T01:51:41.921Z,5.47
2022-08-17T01:54:14.522Z,5.03
2022-08-17T01:56:47.475Z,4.53
2022-08-17T01:59:16.605Z,5.10
2022-08-17T02:01:45.090Z,5.93
2022-08-17T02:04:13.297Z,5.20
2022-08-17T02:06:52.360Z,5.20
2022-08-17T02:09:25.486Z,5.50
2022-08-17T02:11:54.742Z,5.10
2022-08-17T02:14:23.373Z,5.40
2022-08-17T02:16:51.891Z,4.73
2022-08-17T02:19:19.940Z,5.40
2022-08-17T02:21:49.551Z,4.30
2022-08-17T02:24:59.843Z,5.00
2022-08-17T02:27:10.436Z,5.17
2022-08-17T02:29:38.906Z,4.90
2022-08-17T02:32:07.258Z,4.73
2022-08-17T02:34:35.231Z,5.00
2022-08-17T02:37:03.194Z,4.57
2022-08-17T02:39:31.443Z,5.40
2022-08-17T02:42:02.524Z,5.10
2022-08-17T02:44:38.794Z,4.37
2022-08-17T02:47:09.279Z,5.00
2022-08-17T02:49:37.797Z,4.83
2022-08-17T02:52:07.731Z,4.70
2022-08-17T02:54:41.055Z,4.87
2022-08-17T02:57:10.513Z,5.07
2022-08-17T02:59:43.298Z,5.07
2022-08-17T03:02:16.407Z,5.37
2022-08-17T03:04:44.357Z,4.70
2022-08-17T03:07:12.957Z,5.10
2022-08-17T03:09:40.862Z,5.30
2022-08-17T03:12:12.871Z,5.10
2022-08-17T03:14:43.243Z,5.30
2022-08-17T03:17:17.182Z,5.13
2022-08-17T03:19:45.624Z,5.73
2022-08-17T03:22:35.398Z,5.30
2022-08-17T03:25:01.787Z,5.90
2022-08-17T03:27:30.194Z,6.00
2022-08-17T03:29:59.782Z,6.03
2022-08-17T03:32:28.008Z,5.57
2022-08-17T03:35:03.199Z,5.63
2022-08-17T03:37:31.163Z,5.47
2022-08-17T03:39:59.147Z,7.00
2022-08-17T03:42:31.792Z,5.93
2022-08-17T03:45:03.074Z,6.23
2022-08-17T03:47:49.731Z,6.60
2022-08-17T03:50:35.559Z,6.57
2022-08-17T03:53:25.231Z,6.80
2022-08-17T03:56:13.502Z,6.67
2022-08-17T03:58:42.153Z,5.83
2022-08-17T04:01:11.673Z,7.67
2022-08-17T04:03:39.858Z,6.17
2022-08-17T04:06:08.582Z,7.10
2022-08-17T04:08:36.582Z,11.23
2022-08-17T04:11:04.478Z,7.60
2022-08-17T04:13:32.474Z,7.57
2022-08-17T04:16:00.527Z,6.10
2022-08-17T04:18:29.783Z,6.10
2022-08-17T04:20:57.769Z,7.67
2022-08-17T04:23:32.678Z,6.70
2022-08-17T04:26:00.744Z,7.47
2022-08-17T04:28:28.861Z,7.47
2022-08-17T04:30:56.922Z,7.20
2022-08-17T04:33:26.333Z,7.40
2022-08-17T04:35:58.022Z,6.77
2022-08-17T04:38:28.131Z,7.37
2022-08-17T04:41:15.292Z,6.93
2022-08-17T04:43:44.921Z,6.00
2022-08-17T04:46:14.573Z,5.90
2022-08-17T04:48:44.921Z,7.10
2022-08-17T04:51:16.475Z,6.30
2022-08-17T04:53:54.128Z,6.43
2022-08-17T04:56:23.622Z,6.95
2022-08-17T04:58:53.472Z,7.32
2022-08-17T05:01:24.537Z,5.57
2022-08-17T05:03:53.171Z,5.97
2022-08-17T05:06:23.112Z,6.65
2022-08-17T05:08:51.233Z,6.18
2022-08-17T05:11:19.543Z,6.57
2022-08-17T05:13:50.189Z,6.90
2022-08-17T05:16:18.997Z,6.97
2022-08-17T05:18:47.768Z,6.07
2022-08-17T05:21:16.205Z,7.07
2022-08-17T05:23:54.713Z,6.93
2022-08-17T05:26:26.953Z,7.45
2022-08-17T05:28:59.486Z,6.22
2022-08-17T05:31:29.464Z,6.18
2022-08-17T05:33:57.669Z,6.32
2022-08-17T05:36:37.844Z,6.75
2022-08-17T05:39:16.694Z,8.20
2022-08-17T05:41:47.670Z,6.35
2022-08-17T05:44:16.235Z,6.82
2022-08-17T05:46:49.897Z,6.32
2022-08-17T05:49:20.382Z,7.93
2022-08-17T05:52:09.392Z,5.53
2022-08-17T05:54:51.721Z,6.95
2022-08-17T05:57:43.578Z,6.07
2022-08-17T06:00:31.105Z,5.68
2022-08-17T06:03:16.604Z,6.05
2022-08-17T06:05:56.368Z,5.82
2022-08-17T06:08:35.929Z,4.75
2022-08-17T06:11:15.440Z,5.40
2022-08-17T06:13:56.079Z,5.45
2022-08-17T06:16:34.355Z,4.90
2022-08-17T06:19:10.699Z,4.95
2022-08-17T06:21:43.684Z,5.45
2022-08-17T06:24:24.855Z,4.90
2022-08-17T06:26:56.568Z,4.68
2022-08-17T06:29:41.949Z,4.90
2022-08-17T06:32:14.647Z,4.20
2022-08-17T06:34:46.162Z,4.25
2022-08-17T06:37:43.159Z,3.92
2022-08-17T06:40:25.227Z,4.25
2022-08-17T06:43:07.342Z,4.35
2022-08-17T06:45:39.039Z,4.18
2022-08-17T06:48:13.778Z,4.03
2022-08-17T06:50:50.219Z,4.47
2022-08-17T06:53:24.070Z,3.75
2022-08-17T06:55:57.900Z,3.70
2022-08-17T06:58:31.530Z,3.25
2022-08-17T07:01:07.285Z,3.88
2022-08-17T07:03:41.613Z,3.50
2022-08-17T07:06:15.357Z,3.53
2022-08-17T07:08:52.300Z,3.47
2022-08-17T07:11:28.538Z,4.07
2022-08-17T07:14:07.214Z,3.80
2022-08-17T07:16:48.239Z,3.55
2022-08-17T07:19:17.848Z,3.72
2022-08-17T07:21:57.237Z,3.22
2022-08-17T07:24:37.313Z,3.90
2022-08-17T07:27:09.399Z,3.90
2022-08-17T07:29:52.138Z,4.35
2022-08-17T07:32:25.041Z,3.78
2022-08-17T07:35:16.429Z,4.32
2022-08-17T07:37:50.931Z,3.70
2022-08-17T07:40:29.886Z,3.28
2022-08-17T07:43:23.580Z,3.72
2022-08-17T07:46:22.453Z,3.60
2022-08-17T07:48:54.061Z,3.75
2022-08-17T07:51:27.716Z,3.40
2022-08-17T07:54:13.168Z,4.00
2022-08-17T07:56:46.366Z,3.88
2022-08-17T07:59:21.014Z,3.67
2022-08-17T08:02:17.664Z,3.70
2022-08-17T08:05:00.697Z,3.40
2022-08-17T08:07:34.730Z,3.95
2022-08-17T08:10:08.343Z,3.97
2022-08-17T08:12:40.219Z,3.60
2022-08-17T08:15:17.810Z,4.00
2022-08-17T08:17:56.208Z,3.88
2022-08-17T08:20:51.106Z,3.88
2022-08-17T08:23:40.310Z,4.07
2022-08-17T08:26:26.411Z,3.72
2022-08-17T08:29:03.748Z,3.53
2022-08-17T08:31:53.488Z,3.50
2022-08-17T08:35:00.854Z,3.97
2022-08-17T08:37:36.758Z,3.20
2022-08-17T08:40:14.500Z,3.42
2022-08-17T08:42:50.770Z,3.40
2022-08-17T08:45:28.369Z,3.38
2022-08-17T08:48:45.860Z,4.20
2022-08-17T08:51:16.815Z,3.80
2022-08-17T08:53:54.564Z,3.40
2022-08-17T08:57:19.755Z,3.03
2022-08-17T08:59:58.058Z,2.78
2022-08-17T09:02:54.259Z,3.05
2022-08-17T09:05:38.135Z,3.10
2022-08-17T09:08:23.492Z,3.08
2022-08-17T09:11:01.234Z,2.60
2022-08-17T09:13:38.396Z,2.78
2022-08-17T09:16:16.314Z,3.17
2022-08-17T09:19:03.565Z,2.50
2022-08-17T09:21:48.477Z,2.15
2022-08-17T09:24:26.145Z,2.80
2022-08-17T09:27:01.194Z,2.83
2022-08-17T09:29:35.331Z,2.53
2022-08-17T09:32:14.322Z,3.28
2022-08-17T09:34:49.368Z,3.30
2022-08-17T09:37:23.496Z,3.05
2022-08-17T09:40:09.101Z,3.88
2022-08-17T09:42:47.121Z,2.90
2022-08-17T09:45:29.659Z,3.30
2022-08-17T09:48:03.109Z,3.42
2022-08-17T09:51:04.094Z,2.88
2022-08-17T09:53:25.760Z,2.83
2022-08-17T09:56:07.747Z,2.90
2022-08-17T09:58:49.748Z,3.00
2022-08-17T10:01:29.185Z,2.78
2022-08-17T10:04:11.874Z,2.75
2022-08-17T10:06:52.673Z,3.30
2022-08-17T10:09:33.942Z,3.00
2022-08-17T10:12:17.783Z,3.60
2022-08-17T10:14:59.505Z,2.97
2022-08-17T10:17:42.002Z,3.10
2022-08-17T10:20:15.001Z,3.05
2022-08-17T10:23:06.592Z,3.38
2022-08-17T10:25:56.389Z,2.95
2022-08-17T10:28:31.025Z,3.08
2022-08-17T10:31:33.113Z,3.50
2022-08-17T10:34:09.763Z,2.80
2022-08-17T10:36:48.372Z,2.97
2022-08-17T10:39:26.866Z,3.13
2022-08-17T10:41:59.734Z,3.35
2022-08-17T10:44:42.809Z,2.88
2022-08-17T10:47:15.733Z,3.08
2022-08-17T10:49:48.083Z,2.47
2022-08-17T10:52:50.153Z,3.05
2022-08-17T10:55:20.431Z,2.78
2022-08-17T10:57:50.639Z,2.92
2022-08-17T11:01:02.347Z,2.80
2022-08-17T11:03:33.690Z,3.05
2022-08-17T11:06:12.780Z,3.15
2022-08-17T11:09:22.468Z,2.83
2022-08-17T11:12:09.362Z,3.42
2022-08-17T11:15:14.989Z,2.83
2022-08-17T11:18:02.172Z,3.08
2022-08-17T11:20:47.369Z,3.00
2022-08-17T11:23:52.678Z,2.90
2022-08-17T11:26:26.407Z,2.97
2022-08-17T11:29:00.152Z,3.00
2022-08-17T11:31:38.574Z,2.72
2022-08-17T11:34:18.472Z,3.05
2022-08-17T11:37:21.330Z,3.50
2022-08-17T11:40:13.501Z,3.08
2022-08-17T11:42:56.387Z,3.00
2022-08-17T11:45:56.015Z,3.10
2022-08-17T11:48:50.871Z,3.13
2022-08-17T11:51:36.031Z,2.90
2022-08-17T11:57:00.159Z,3.25
2022-08-17T11:59:58.552Z,2.92
2022-08-17T12:02:47.910Z,3.20
2022-08-17T12:05:36.283Z,3.05
2022-08-17T12:08:20.284Z,3.60
2022-08-17T12:10:59.148Z,3.35
2022-08-17T12:13:38.451Z,3.78
2022-08-17T12:16:10.057Z,3.50
2022-08-17T12:18:42.198Z,3.00
2022-08-17T12:21:27.057Z,2.75
2022-08-17T12:24:03.272Z,2.80
2022-08-17T12:26:33.994Z,3.40
2022-08-17T12:29:05.060Z,3.05
2022-08-17T12:31:37.603Z,4.00
2022-08-17T12:34:06.067Z,3.05
2022-08-17T12:36:34.745Z,3.70
2022-08-17T12:39:13.297Z,3.15
2022-08-17T12:41:47.461Z,3.45
2022-08-17T12:44:18.888Z,2.78
2022-08-17T12:46:50.648Z,3.40
2022-08-17T12:49:29.595Z,3.00
2022-08-17T12:52:12.423Z,2.85
2022-08-17T12:54:47.480Z,3.05
2022-08-17T12:57:20.597Z,3.17
2022-08-17T12:59:54.363Z,3.13
2022-08-17T13:02:33.622Z,3.22
2022-08-17T13:05:02.940Z,2.90
2022-08-17T13:07:35.142Z,2.90
2022-08-17T13:10:03.583Z,3.10
2022-08-17T13:12:36.648Z,3.17
2022-08-17T13:15:05.231Z,2.92
2022-08-17T13:17:36.467Z,3.13
2022-08-17T13:20:14.712Z,3.58
2022-08-17T13:22:45.290Z,3.08
2022-08-17T13:25:17.768Z,3.05
2022-08-17T13:27:49.223Z,3.13
2022-08-17T13:30:24.850Z,3.20
2022-08-17T13:32:53.972Z,2.85
2022-08-17T13:35:39.898Z,3.78
2022-08-17T13:38:11.550Z,3.42
2022-08-17T13:40:43.673Z,3.03
2022-08-17T13:43:13.355Z,3.55
2022-08-17T13:45:51.785Z,3.78
2022-08-17T13:48:26.262Z,3.47
2022-08-17T13:51:26.310Z,3.65
2022-08-17T13:54:20.088Z,3.75
2022-08-17T13:56:55.658Z,3.42
2022-08-17T13:59:36.375Z,4.03
2022-08-17T14:02:21.181Z,3.35
2022-08-17T14:04:50.241Z,3.17
2022-08-17T14:07:38.251Z,3.17
2022-08-17T14:10:12.247Z,3.42
2022-08-17T14:12:45.048Z,3.53
2022-08-17T14:15:16.957Z,3.17
2022-08-17T14:17:49.657Z,2.70
2022-08-17T14:20:20.761Z,2.95
2022-08-17T14:22:51.252Z,3.65
2022-08-17T14:25:21.765Z,4.93
2022-08-17T14:27:53.158Z,3.17
2022-08-17T14:30:25.122Z,2.85
2022-08-17T14:32:53.683Z,2.83
2022-08-17T14:35:23.875Z,3.17
2022-08-17T14:37:53.039Z,3.22
2022-08-17T14:40:24.907Z,3.70
2022-08-17T14:42:54.434Z,3.25
2022-08-17T14:45:29.850Z,2.95
2022-08-17T14:48:04.192Z,3.22
2022-08-17T14:50:35.305Z,3.40
2022-08-17T14:53:04.470Z,2.80
2022-08-17T14:55:32.580Z,4.00
2022-08-17T14:58:01.104Z,3.30
2022-08-17T15:00:31.495Z,3.47
2022-08-17T15:03:01.394Z,3.20
2022-08-17T15:05:33.747Z,2.95
2022-08-17T15:08:03.225Z,3.13
2022-08-17T15:10:31.745Z,4.00
2022-08-17T15:13:00.305Z,3.40
2022-08-17T15:15:30.511Z,3.30
2022-08-17T15:17:59.953Z,3.60
2022-08-17T15:20:30.761Z,3.30
2022-08-17T15:22:59.839Z,3.13
2022-08-17T15:25:30.435Z,3.17
2022-08-17T15:27:58.956Z,2.83
2022-08-17T15:30:27.635Z,3.60
2022-08-17T15:32:58.680Z,3.22
2022-08-17T15:35:30.023Z,2.90
2022-08-17T15:38:07.934Z,3.15
2022-08-17T15:40:39.993Z,2.80
2022-08-17T15:43:11.019Z,3.28
2022-08-17T15:45:40.171Z,3.28
2022-08-17T15:48:10.250Z,2.80
2022-08-17T15:50:38.430Z,2.85
2022-08-17T15:53:06.384Z,2.88
2022-08-17T15:55:36.630Z,3.58
2022-08-17T15:58:05.400Z,3.28
2022-08-17T16:00:44.107Z,2.90
2022-08-17T16:03:59.287Z,4.30
2022-08-17T16:06:12.099Z,3.67
2022-08-17T16:08:41.886Z,4.00
2022-08-17T16:11:11.253Z,7.38
2022-08-17T16:13:40.688Z,3.70
2022-08-17T16:16:09.588Z,4.32
2022-08-17T16:18:40.042Z,3.58
2022-08-17T16:21:31.208Z,3.95
2022-08-17T16:24:13.440Z,3.83
2022-08-17T16:26:43.649Z,3.53
2022-08-17T16:29:12.011Z,4.20
2022-08-17T16:31:41.380Z,3.88
2022-08-17T16:34:17.333Z,3.80
2022-08-17T16:36:55.540Z,3.53
2022-08-17T16:39:25.600Z,3.30
2022-08-17T16:41:53.601Z,3.28
2022-08-17T16:44:22.656Z,3.85
2022-08-17T16:46:51.550Z,3.55
2022-08-17T16:49:31.559Z,2.70
2022-08-17T16:52:07.709Z,3.70
2022-08-17T16:54:38.043Z,3.47
2022-08-17T16:57:06.508Z,3.55
2022-08-17T16:59:39.603Z,3.60
2022-08-17T17:02:11.553Z,3.67
2022-08-17T17:04:46.716Z,3.45
2022-08-17T17:07:38.858Z,4.25
2022-08-17T17:10:10.859Z,3.83
2022-08-17T17:13:02.939Z,3.85
2022-08-17T17:15:39.718Z,3.00
2022-08-17T17:18:13.309Z,3.65
2022-08-17T17:20:51.059Z,3.60
2022-08-17T17:23:33.182Z,3.67
2022-08-17T17:26:11.085Z,3.45
2022-08-17T17:28:54.290Z,3.58
2022-08-17T17:31:26.335Z,2.88
2022-08-17T17:33:57.763Z,3.90
2022-08-17T17:36:32.654Z,3.65
2022-08-17T17:39:05.858Z,3.60
2022-08-17T17:41:47.366Z,3.85
2022-08-17T17:44:19.846Z,3.63
2022-08-17T17:46:52.489Z,3.55
2022-08-17T17:49:21.144Z,3.95
2022-08-17T17:52:08.614Z,4.53
2022-08-17T17:54:49.365Z,3.65
2022-08-17T17:57:24.808Z,3.75
2022-08-17T18:00:02.940Z,3.83
2022-08-17T18:02:51.910Z,3.72
2022-08-17T18:05:44.649Z,4.15
2022-08-17T18:08:34.333Z,4.22
2022-08-17T18:11:23.984Z,3.63
2022-08-17T18:14:04.710Z,4.00
2022-08-17T18:16:33.447Z,4.43
2022-08-17T18:19:02.020Z,4.18
2022-08-17T18:21:37.848Z,3.08
2022-08-17T18:24:10.534Z,4.30
2022-08-17T18:26:45.060Z,5.20
2022-08-17T18:29:27.094Z,4.35
2022-08-17T18:32:22.753Z,4.40
2022-08-17T18:34:54.651Z,5.82
2022-08-17T18:37:39.823Z,4.55
2022-08-17T18:40:39.291Z,4.85
2022-08-17T18:43:12.793Z,6.20
2022-08-17T18:45:48.285Z,4.97
2022-08-17T18:48:28.483Z,5.22
2022-08-17T18:51:00.396Z,4.72
2022-08-17T18:53:38.848Z,4.22
2022-08-17T18:56:30.725Z,4.68
2022-08-17T18:59:09.266Z,3.88
2022-08-17T19:01:52.584Z,4.90
2022-08-17T19:04:34.513Z,4.80
2022-08-17T19:07:28.105Z,5.28
2022-08-17T19:10:00.014Z,5.35
2022-08-17T19:12:40.194Z,4.65
2022-08-17T19:15:10.636Z,4.80
2022-08-17T19:17:45.360Z,4.60
2022-08-17T19:20:19.508Z,5.05
2022-08-17T19:23:06.833Z,4.47
2022-08-17T19:25:40.933Z,5.20
2022-08-17T19:28:22.562Z,5.18
2022-08-17T19:30:55.799Z,4.25
2022-08-17T19:33:27.263Z,4.10
2022-08-17T19:36:09.090Z,4.68
2022-08-17T19:38:53.462Z,4.82
2022-08-17T19:41:30.613Z,5.03
2022-08-17T19:44:28.597Z,7.07
2022-08-17T19:47:06.066Z,5.88
2022-08-17T19:49:48.817Z,5.47
2022-08-17T19:52:36.309Z,5.70
2022-08-17T19:55:21.773Z,4.95
2022-08-17T19:57:58.987Z,5.35
2022-08-17T20:00:32.088Z,5.30
2022-08-17T20:03:06.423Z,4.93
2022-08-17T20:06:01.359Z,4.95
2022-08-17T20:08:32.657Z,5.55
2022-08-17T20:11:05.883Z,5.53
2022-08-17T20:13:40.271Z,5.35
2022-08-17T20:16:14.506Z,5.30
2022-08-17T20:18:51.138Z,4.80
2022-08-17T20:21:27.368Z,5.00
2022-08-17T20:24:05.533Z,4.70
2022-08-17T20:26:55.186Z,4.38
2022-08-17T20:29:52.007Z,4.50
2022-08-17T20:32:35.279Z,4.85
2022-08-17T20:35:10.186Z,4.35
2022-08-17T20:37:43.259Z,5.18
2022-08-17T20:40:32.146Z,5.13
2022-08-17T20:43:00.688Z,4.90
2022-08-17T20:45:57.986Z,5.50
2022-08-17T20:48:38.480Z,5.13
2022-08-17T20:51:25.975Z,5.57
2022-08-17T20:54:35.740Z,4.65
2022-08-17T20:57:09.195Z,5.55
2022-08-17T21:00:13.949Z,4.80
2022-08-17T21:02:44.594Z,5.22
2022-08-17T21:05:34.580Z,5.50
2022-08-17T21:08:15.186Z,5.43
2022-08-17T21:10:46.867Z,5.72
2022-08-17T21:14:05.467Z,4.90
2022-08-17T21:16:42.396Z,5.35
2022-08-17T21:19:31.225Z,4.85
2022-08-17T21:22:16.047Z,5.97
2022-08-17T21:24:54.772Z,4.85
2022-08-17T21:27:34.922Z,4.82
2022-08-17T21:30:23.041Z,5.68
2022-08-17T21:33:17.774Z,5.60
2022-08-17T21:35:51.173Z,4.68
2022-08-17T21:38:23.223Z,6.28
2022-08-17T21:40:54.050Z,5.78
2022-08-17T21:43:26.308Z,5.20
2022-08-17T21:46:04.489Z,5.80
2022-08-17T21:48:41.488Z,5.40
2022-08-17T21:51:12.124Z,5.25
2022-08-17T21:53:47.136Z,5.97
2022-08-17T21:56:28.289Z,5.25
2022-08-17T21:59:00.438Z,6.55
2022-08-17T22:01:30.459Z,4.68
2022-08-17T22:04:01.947Z,5.50
2022-08-17T22:06:36.075Z,4.85
2022-08-17T22:09:13.705Z,4.75
2022-08-17T22:11:52.786Z,6.05
2022-08-17T22:14:22.446Z,5.50
2022-08-17T22:17:08.041Z,5.53
2022-08-17T22:19:39.651Z,5.82
2022-08-17T22:22:11.071Z,5.75
2022-08-17T22:24:40.424Z,5.82
2022-08-17T22:27:11.638Z,4.80
2022-08-17T22:29:57.603Z,5.40
2022-08-17T22:32:48.465Z,4.65
2022-08-17T22:35:42.137Z,5.80
2022-08-17T22:38:29.263Z,4.43
2022-08-17T22:41:32.027Z,4.13
2022-08-17T22:44:07.836Z,6.38
2022-08-17T22:46:42.856Z,4.90
2022-08-17T22:49:10.995Z,6.17
2022-08-17T22:51:43.796Z,4.50
2022-08-17T22:54:35.357Z,4.72
2022-08-17T22:57:23.962Z,5.18
2022-08-17T22:59:54.992Z,4.50
2022-08-17T23:02:26.420Z,3.70
2022-08-17T23:04:57.369Z,4.55
2022-08-17T23:07:25.406Z,4.60
2022-08-17T23:10:03.120Z,4.78
2022-08-17T23:12:32.504Z,4.20
2022-08-17T23:15:02.141Z,4.45
2022-08-17T23:17:36.886Z,4.55
2022-08-17T23:20:08.394Z,5.05
2022-08-17T23:22:38.291Z,4.43
2022-08-17T23:25:29.985Z,3.90
2022-08-17T23:28:01.940Z,4.40
2022-08-17T23:30:31.288Z,4.70
2022-08-17T23:33:01.201Z,4.32
2022-08-17T23:35:39.917Z,4.00
2022-08-17T23:38:09.851Z,4.87
2022-08-17T23:40:39.416Z,4.13
2022-08-17T23:43:17.456Z,4.38
2022-08-17T23:45:53.568Z,3.93
2022-08-17T23:48:35.290Z,4.20
2022-08-17T23:51:07.358Z,4.50
2022-08-17T23:53:36.746Z,4.60
2022-08-17T23:56:09.575Z,4.28
2022-08-17T23:58:42.254Z,4.00
